createdAt,value
2019-02-06T00:00:03.230Z,28.60
2019-02-06T00:02:56.990Z,28.60
2019-02-06T00:05:49.742Z,28.70
2019-02-06T00:08:42.512Z,28.70
2019-02-06T00:11:37.850Z,28.60
2019-02-06T00:14:32.227Z,28.60
2019-02-06T00:17:25.720Z,28.50
2019-02-06T00:20:18.993Z,28.50
2019-02-06T00:23:12.436Z,28.60
2019-02-06T00:26:05.639Z,28.50
2019-02-06T00:28:58.840Z,28.60
2019-02-06T00:31:51.880Z,28.60
2019-02-06T00:34:45.020Z,28.60
2019-02-06T00:37:37.981Z,28.60
2019-02-06T00:40:31.860Z,28.60
2019-02-06T00:43:25.092Z,28.50
2019-02-06T00:46:18.327Z,28.50
2019-02-06T00:49:11.343Z,28.60
2019-02-06T00:52:05.427Z,28.60
2019-02-06T00:54:58.985Z,28.40
2019-02-06T00:57:52.989Z,28.30
2019-02-06T01:00:46.233Z,28.40
2019-02-06T01:03:39.081Z,28.40
2019-02-06T01:06:32.673Z,28.40
2019-02-06T01:09:25.511Z,28.40
2019-02-06T01:12:18.863Z,28.30
2019-02-06T01:15:12.513Z,28.30
2019-02-06T01:18:05.829Z,28.40
2019-02-06T01:20:59.506Z,28.50
2019-02-06T01:23:52.845Z,28.40
2019-02-06T01:26:46.505Z,28.50
2019-02-06T01:29:39.665Z,28.50
2019-02-06T01:32:34.942Z,28.40
2019-02-06T01:35:28.643Z,28.30
2019-02-06T01:38:22.349Z,28.20
2019-02-06T01:41:15.703Z,27.90
2019-02-06T01:44:09.497Z,27.70
2019-02-06T01:47:03.212Z,27.80
2019-02-06T01:49:57.024Z,27.80
2019-02-06T01:52:50.833Z,27.90
2019-02-06T01:55:44.344Z,27.90
2019-02-06T01:58:38.073Z,27.90
2019-02-06T02:01:31.131Z,27.80
2019-02-06T02:04:24.580Z,27.70
2019-02-06T02:07:18.428Z,27.80
2019-02-06T02:10:12.403Z,27.70
2019-02-06T02:13:06.406Z,27.80
2019-02-06T02:15:59.751Z,27.70
2019-02-06T02:18:53.618Z,27.70
2019-02-06T02:21:47.433Z,27.80
2019-02-06T02:24:41.090Z,27.90
2019-02-06T02:27:34.880Z,27.80
2019-02-06T02:30:35.356Z,27.80
2019-02-06T02:33:29.158Z,27.90
2019-02-06T02:36:22.242Z,28.00
2019-02-06T02:39:15.068Z,27.90
2019-02-06T02:42:09.135Z,28.10
2019-02-06T02:45:02.467Z,27.90
2019-02-06T02:47:56.053Z,28.00
2019-02-06T02:50:49.592Z,28.10
2019-02-06T02:53:43.831Z,28.10
2019-02-06T02:56:37.730Z,28.00
2019-02-06T02:59:30.670Z,28.00
2019-02-06T03:02:38.820Z,28.10
2019-02-06T03:05:35.151Z,28.00
2019-02-06T03:08:28.271Z,28.20
2019-02-06T03:11:22.804Z,28.10
2019-02-06T03:14:24.094Z,28.10
2019-02-06T03:17:17.545Z,28.20
2019-02-06T03:20:12.033Z,27.90
2019-02-06T03:23:04.841Z,27.90
2019-02-06T03:25:58.243Z,28.10
2019-02-06T03:28:51.506Z,28.00
2019-02-06T03:31:44.626Z,27.90
2019-02-06T03:34:37.778Z,28.00
2019-02-06T03:37:33.152Z,28.00
2019-02-06T03:40:28.353Z,28.10
2019-02-06T03:43:56.797Z,28.10
2019-02-06T03:46:41.348Z,27.80
2019-02-06T03:49:54.397Z,27.90
2019-02-06T03:52:52.031Z,27.80
2019-02-06T03:55:46.420Z,27.80
2019-02-06T03:59:02.466Z,27.80
2019-02-06T04:02:03.623Z,27.80
2019-02-06T04:04:57.615Z,27.90
2019-02-06T04:07:56.582Z,27.90
2019-02-06T04:10:50.631Z,27.90
2019-02-06T04:13:43.179Z,27.90
2019-02-06T04:16:38.802Z,26.80
2019-02-06T04:19:31.492Z,25.60
2019-02-06T04:22:24.008Z,24.90
2019-02-06T04:25:16.916Z,24.70
2019-02-06T04:28:09.616Z,24.70
2019-02-06T04:31:02.875Z,24.80
2019-02-06T04:33:55.934Z,24.70
2019-02-06T04:36:48.891Z,24.70
2019-02-06T04:39:46.420Z,24.60
2019-02-06T04:42:41.269Z,24.70
2019-02-06T04:45:37.138Z,24.60
2019-02-06T04:48:37.717Z,24.60
2019-02-06T04:55:01.582Z,24.90
2019-02-06T05:05:31.358Z,24.70
2019-02-06T05:11:42.495Z,25.10
2019-02-06T05:14:42.882Z,25.20
2019-02-06T05:17:38.733Z,25.30
2019-02-06T05:20:36.442Z,25.30
2019-02-06T05:27:34.029Z,25.30
2019-02-06T05:30:48.386Z,25.30
2019-02-06T05:33:50.632Z,25.30
2019-02-06T05:39:51.462Z,25.40
2019-02-06T05:42:52.519Z,25.40
2019-02-06T05:45:44.602Z,26.30
2019-02-06T05:48:42.935Z,27.00
2019-02-06T05:51:41.913Z,27.50
2019-02-06T05:54:39.680Z,28.10
2019-02-06T06:01:30.630Z,28.20
2019-02-06T06:04:34.158Z,28.50
2019-02-06T06:07:45.169Z,28.40
2019-02-06T06:10:44.236Z,28.30
2019-02-06T06:13:34.314Z,28.50
2019-02-06T06:16:30.820Z,28.40
2019-02-06T06:19:24.373Z,28.50
2019-02-06T06:22:20.380Z,28.60
2019-02-06T06:25:39.542Z,28.60
2019-02-06T06:32:48.369Z,28.60
2019-02-06T06:36:16.885Z,28.80
2019-02-06T06:39:17.442Z,28.80
2019-02-06T06:53:55.292Z,29.10
2019-02-06T07:05:00.331Z,29.00
2019-02-06T07:07:56.652Z,28.90
2019-02-06T07:14:41.082Z,29.10
2019-02-06T07:14:44.919Z,28.90
2019-02-06T07:22:00.569Z,28.90
2019-02-06T07:24:56.755Z,28.80
2019-02-06T07:28:26.851Z,28.80
2019-02-06T07:31:15.718Z,28.50
2019-02-06T07:34:18.046Z,28.70
2019-02-06T07:37:29.802Z,28.80
2019-02-06T07:40:58.625Z,28.80
2019-02-06T07:44:13.358Z,28.70
2019-02-06T07:58:22.640Z,28.60
2019-02-06T08:04:45.786Z,28.90
2019-02-06T08:07:52.920Z,29.00
2019-02-06T08:14:05.822Z,29.20
2019-02-06T08:19:53.180Z,29.10
2019-02-06T08:23:42.139Z,28.90
2019-02-06T08:26:52.852Z,29.00
2019-02-06T08:30:00.828Z,29.00
2019-02-06T08:33:04.350Z,29.00
2019-02-06T08:36:03.558Z,28.90
2019-02-06T08:38:58.703Z,29.00
2019-02-06T08:41:52.298Z,28.90
2019-02-06T08:44:49.844Z,29.00
2019-02-06T08:47:44.360Z,28.90
